CheckWX is a tool to help pilots better visualize weather data.  It is not intended as a substitute for an official pre-flight weather briefing.

03:49:48 UTC

EGHH METAR
Bournemouth Airport
Bournemouth, United Kingdom
Current

7 hours ago

EGHH 052050Z 24015KT 9999 BKN018 11/08 Q1016
Observed
Dec-5 @ 20:50 UTC
Wind
  • 240° at 15 KTS
Visibility
10,000+ meters
Flight Rules
MVFR
Cloud Levels
  • Broken at 1,800' AGL
Temperature
11°C / 52°F
Dewpoint
C / 46°F
Humidity
82%
Altimeter
30" Hg
Pressure
1015.92 hPa
Previous

7 hours ago

EGHH 052020Z 24015KT 9999 SCT019 11/07 Q1016
Observed
Dec-5 @ 20:20 UTC
Wind
  • 240° at 15 KTS
Visibility
10,000+ meters
Flight Rules
VFR
Cloud Levels
  • Scattered at 1,900' AGL
Temperature
11°C / 52°F
Dewpoint
C / 45°F
Humidity
77%
Altimeter
30" Hg
Pressure
1015.92 hPa
Previous

8 hours ago

EGHH 051950Z 24012KT 9999 SCT020 SCT043 11/07 Q1016
Observed
Dec-5 @ 19:50 UTC
Wind
  • 240° at 12 KTS
Visibility
10,000+ meters
Flight Rules
VFR
Cloud Levels
  • Scattered at 2,000' AGL
  • Scattered at 4,300' AGL
Temperature
11°C / 52°F
Dewpoint
C / 45°F
Humidity
77%
Altimeter
30" Hg
Pressure
1015.92 hPa